Terminal Aerodrome Forecast
Issued by NWS

Home | Current Version | Previous Version | Text Only | Print | Product List | Glossary On
Versions: 1 2 3 4 5 6 7 8 9 10 11 12 13 14
000
FTUS43 KJKL 291739
TAFSJS
TAF
KSJS 291739Z 2918/3018 18006KT P6SM SCT250
     FM300200 20008G15KT P6SM VCSH BKN025 OVC060
     FM300500 22008KT 5SM -SHRA BKN020 OVC035
     FM300700 25006KT 4SM -SHRA BR OVC010
     FM301400 28005KT P6SM VCSH BKN015
     FM301600 28005KT P6SM SCT040=

USA.gov is the U.S. government's official web portal to all federal, state and local government web resources and services.